Main page
METAR-TAF:

METAR-TAF

Airports :

Hakkari–Yüksekova Airport

Yüksekova, Turkey

latitude: 37-33-06N, longitude: 44-14-01E, elevation: 1950 m

Current weather observation

The report was made 9 hours and 47 minutes ago, at 12:50 UTC
Wind 8 kt from variable directions
Temperature 25°C
Humidity 18%
Pressure 1021 hPa
Visibility 10 km or more
Scattered clouds at a height of 4000 ft

METAR: LTCW 211250Z VRB08KT 9999 SCT040 25/M01 Q1021

Time: 01:37 (22:37 UTC)

Forecast

The report was made 8 hours and 57 minutes ago, at 13:40 UTC
Forecast valid from 21 at 15 UTC to 21 at 24 UTC
Wind 2 kt from variable directions
Visibility 10 km or more
Scattered clouds at a height of 3500 ft
Broken clouds at a height of 7000 ft

TAF: LTCW 211340Z 2115/2124 VRB02KT 9999 SCT035 BKN070

Weather observations and forecasts of more than 4000 airports (METAR and TAF reports).

The available stations are represented by yellow and red dots on the map.

Hover mouse over dot to see the name of the station.

Then click to see weather observations and forecasts.

To change the map : click on the green buttons with a black cross to zoom in, on the green button with a dash to zoom out, or on the green arrows for adjacent maps.


METAR-TAF: